sensor_id;sensor_type;location;lat;lon;timestamp;temperature;humidity
46123;DHT22;31856;-35.404;149.120;2023-02-03T00:07:31;16.20;42.60
46123;DHT22;31856;-35.404;149.120;2023-02-03T00:10:02;16.30;41.90
46123;DHT22;31856;-35.404;149.120;2023-02-03T00:12:32;16.00;41.50
46123;DHT22;31856;-35.404;149.120;2023-02-03T00:15:03;16.30;42.00
46123;DHT22;31856;-35.404;149.120;2023-02-03T00:17:32;16.50;42.20
46123;DHT22;31856;-35.404;149.120;2023-02-03T00:20:01;16.40;41.50
46123;DHT22;31856;-35.404;149.120;2023-02-03T00:22:31;16.50;41.80
46123;DHT22;31856;-35.404;149.120;2023-02-03T00:25:00;16.80;41.90
46123;DHT22;31856;-35.404;149.120;2023-02-03T00:27:30;17.00;41.40
46123;DHT22;31856;-35.404;149.120;2023-02-03T00:30:01;17.10;41.90
46123;DHT22;31856;-35.404;149.120;2023-02-03T00:32:30;17.30;40.40
46123;DHT22;31856;-35.404;149.120;2023-02-03T00:34:59;17.70;41.10
46123;DHT22;31856;-35.404;149.120;2023-02-03T00:37:29;17.70;40.60
46123;DHT22;31856;-35.404;149.120;2023-02-03T00:39:59;16.90;40.30
46123;DHT22;31856;-35.404;149.120;2023-02-03T00:42:28;16.90;40.50
46123;DHT22;31856;-35.404;149.120;2023-02-03T00:44:58;16.80;41.00
46123;DHT22;31856;-35.404;149.120;2023-02-03T00:47:27;16.80;41.40
46123;DHT22;31856;-35.404;149.120;2023-02-03T00:49:56;16.60;42.90
46123;DHT22;31856;-35.404;149.120;2023-02-03T00:52:26;16.60;42.50
46123;DHT22;31856;-35.404;149.120;2023-02-03T00:54:56;17.20;42.20
46123;DHT22;31856;-35.404;149.120;2023-02-03T00:57:25;17.40;41.10
46123;DHT22;31856;-35.404;149.120;2023-02-03T00:59:55;17.60;39.80
46123;DHT22;31856;-35.404;149.120;2023-02-03T01:02:26;17.50;40.60
46123;DHT22;31856;-35.404;149.120;2023-02-03T01:04:55;17.30;40.90
46123;DHT22;31856;-35.404;149.120;2023-02-03T01:07:25;17.10;41.20
46123;DHT22;31856;-35.404;149.120;2023-02-03T01:09:54;16.90;41.70
46123;DHT22;31856;-35.404;149.120;2023-02-03T01:12:24;16.30;42.50
46123;DHT22;31856;-35.404;149.120;2023-02-03T01:14:54;16.50;42.50
46123;DHT22;31856;-35.404;149.120;2023-02-03T01:17:24;16.80;41.50
46123;DHT22;31856;-35.404;149.120;2023-02-03T01:19:53;16.80;42.00
46123;DHT22;31856;-35.404;149.120;2023-02-03T01:22:23;17.10;41.00
46123;DHT22;31856;-35.404;149.120;2023-02-03T01:24:54;17.30;40.60
46123;DHT22;31856;-35.404;149.120;2023-02-03T01:27:24;17.00;40.00
46123;DHT22;31856;-35.404;149.120;2023-02-03T01:29:54;16.60;40.90
46123;DHT22;31856;-35.404;149.120;2023-02-03T01:32:23;16.50;40.80
46123;DHT22;31856;-35.404;149.120;2023-02-03T01:34:54;16.60;41.30
46123;DHT22;31856;-35.404;149.120;2023-02-03T01:37:23;16.80;40.30
46123;DHT22;31856;-35.404;149.120;2023-02-03T01:39:52;17.10;40.70
46123;DHT22;31856;-35.404;149.120;2023-02-03T01:42:22;17.40;40.40
46123;DHT22;31856;-35.404;149.120;2023-02-03T01:44:52;17.70;39.80
46123;DHT22;31856;-35.404;149.120;2023-02-03T01:47:38;17.60;38.60
46123;DHT22;31856;-35.404;149.120;2023-02-03T01:52:41;18.20;38.40
46123;DHT22;31856;-35.404;149.120;2023-02-03T01:55:13;18.10;39.10
46123;DHT22;31856;-35.404;149.120;2023-02-03T01:57:55;18.30;38.80
46123;DHT22;31856;-35.404;149.120;2023-02-03T03:48:11;17.20;41.10
46123;DHT22;31856;-35.404;149.120;2023-02-03T03:50:50;17.50;40.90
46123;DHT22;31856;-35.404;149.120;2023-02-03T03:53:20;17.50;40.00
46123;DHT22;31856;-35.404;149.120;2023-02-03T03:55:50;17.30;40.00
46123;DHT22;31856;-35.404;149.120;2023-02-03T03:58:25;17.00;40.80
46123;DHT22;31856;-35.404;149.120;2023-02-03T04:00:56;17.20;41.40
46123;DHT22;31856;-35.404;149.120;2023-02-03T04:03:29;17.10;40.80
46123;DHT22;31856;-35.404;149.120;2023-02-03T04:06:00;17.40;40.80
46123;DHT22;31856;-35.404;149.120;2023-02-03T04:08:30;17.70;39.90
46123;DHT22;31856;-35.404;149.120;2023-02-03T04:11:00;17.90;38.90
46123;DHT22;31856;-35.404;149.120;2023-02-03T04:13:29;18.00;37.70
46123;DHT22;31856;-35.404;149.120;2023-02-03T04:15:59;18.10;38.00
46123;DHT22;31856;-35.404;149.120;2023-02-03T04:18:29;18.00;38.40
46123;DHT22;31856;-35.404;149.120;2023-02-03T04:20:58;18.10;38.20
46123;DHT22;31856;-35.404;149.120;2023-02-03T04:23:28;18.30;39.00
46123;DHT22;31856;-35.404;149.120;2023-02-03T04:25:59;18.80;37.50
46123;DHT22;31856;-35.404;149.120;2023-02-03T04:28:28;19.00;37.50
46123;DHT22;31856;-35.404;149.120;2023-02-03T04:31:01;19.10;36.30
46123;DHT22;31856;-35.404;149.120;2023-02-03T04:33:30;18.90;36.30
46123;DHT22;31856;-35.404;149.120;2023-02-03T04:36:00;18.80;36.30
46123;DHT22;31856;-35.404;149.120;2023-02-03T04:38:29;19.20;36.70
46123;DHT22;31856;-35.404;149.120;2023-02-03T04:40:58;19.70;35.80
46123;DHT22;31856;-35.404;149.120;2023-02-03T04:43:28;19.30;34.60
46123;DHT22;31856;-35.404;149.120;2023-02-03T04:46:00;19.00;35.20
46123;DHT22;31856;-35.404;149.120;2023-02-03T04:48:30;19.30;34.50
46123;DHT22;31856;-35.404;149.120;2023-02-03T04:51:03;19.20;35.30
46123;DHT22;31856;-35.404;149.120;2023-02-03T04:53:33;19.50;36.00
46123;DHT22;31856;-35.404;149.120;2023-02-03T04:56:02;19.70;35.90
46123;DHT22;31856;-35.404;149.120;2023-02-03T04:58:32;20.00;35.70
46123;DHT22;31856;-35.404;149.120;2023-02-03T05:01:05;20.10;34.90
46123;DHT22;31856;-35.404;149.120;2023-02-03T05:03:35;20.10;34.90
46123;DHT22;31856;-35.404;149.120;2023-02-03T05:06:05;20.10;34.50
46123;DHT22;31856;-35.404;149.120;2023-02-03T05:08:34;20.00;34.10
46123;DHT22;31856;-35.404;149.120;2023-02-03T05:11:05;20.00;34.40
46123;DHT22;31856;-35.404;149.120;2023-02-03T05:13:34;20.00;33.70
46123;DHT22;31856;-35.404;149.120;2023-02-03T05:16:04;20.00;34.10
46123;DHT22;31856;-35.404;149.120;2023-02-03T05:18:33;20.00;34.10
46123;DHT22;31856;-35.404;149.120;2023-02-03T05:21:03;19.80;35.40
46123;DHT22;31856;-35.404;149.120;2023-02-03T05:23:33;20.00;34.80
46123;DHT22;31856;-35.404;149.120;2023-02-03T05:26:02;20.20;34.50
46123;DHT22;31856;-35.404;149.120;2023-02-03T05:28:32;20.30;34.10
46123;DHT22;31856;-35.404;149.120;2023-02-03T05:31:01;20.40;34.00
46123;DHT22;31856;-35.404;149.120;2023-02-03T05:33:31;20.20;34.20
46123;DHT22;31856;-35.404;149.120;2023-02-03T05:36:00;20.30;33.60
46123;DHT22;31856;-35.404;149.120;2023-02-03T05:38:30;20.40;34.20
46123;DHT22;31856;-35.404;149.120;2023-02-03T05:40:59;20.40;33.30
46123;DHT22;31856;-35.404;149.120;2023-02-03T06:00:03;20.70;34.50
46123;DHT22;31856;-35.404;149.120;2023-02-03T06:02:35;20.30;32.60
46123;DHT22;31856;-35.404;149.120;2023-02-03T06:05:04;20.20;33.80
46123;DHT22;31856;-35.404;149.120;2023-02-03T06:07:34;20.30;33.10
46123;DHT22;31856;-35.404;149.120;2023-02-03T06:10:03;20.30;33.40
46123;DHT22;31856;-35.404;149.120;2023-02-03T06:12:33;19.60;33.70
46123;DHT22;31856;-35.404;149.120;2023-02-03T06:15:02;19.20;34.30
46123;DHT22;31856;-35.404;149.120;2023-02-03T06:17:31;19.10;35.60
46123;DHT22;31856;-35.404;149.120;2023-02-03T06:20:02;18.90;34.70
46123;DHT22;31856;-35.404;149.120;2023-02-03T06:22:32;18.80;35.50
46123;DHT22;31856;-35.404;149.120;2023-02-03T06:25:02;18.70;35.70
46123;DHT22;31856;-35.404;149.120;2023-02-03T06:27:32;18.90;36.10
46123;DHT22;31856;-35.404;149.120;2023-02-03T06:30:02;19.30;36.40
46123;DHT22;31856;-35.404;149.120;2023-02-03T06:32:31;19.30;35.10
46123;DHT22;31856;-35.404;149.120;2023-02-03T06:35:01;19.50;34.90
46123;DHT22;31856;-35.404;149.120;2023-02-03T06:37:30;19.70;33.80
46123;DHT22;31856;-35.404;149.120;2023-02-03T06:40:00;19.80;34.30
46123;DHT22;31856;-35.404;149.120;2023-02-03T06:42:30;20.20;34.50
46123;DHT22;31856;-35.404;149.120;2023-02-03T06:45:00;20.10;33.80
46123;DHT22;31856;-35.404;149.120;2023-02-03T06:47:29;20.30;34.10
46123;DHT22;31856;-35.404;149.120;2023-02-03T06:49:59;20.40;33.60
46123;DHT22;31856;-35.404;149.120;2023-02-03T06:52:28;20.20;33.90
46123;DHT22;31856;-35.404;149.120;2023-02-03T06:54:57;20.30;33.90
46123;DHT22;31856;-35.404;149.120;2023-02-03T06:57:27;19.90;34.00
46123;DHT22;31856;-35.404;149.120;2023-02-03T06:59:56;19.80;34.30
46123;DHT22;31856;-35.404;149.120;2023-02-03T07:02:25;19.80;34.10
46123;DHT22;31856;-35.404;149.120;2023-02-03T07:04:55;19.70;33.50
46123;DHT22;31856;-35.404;149.120;2023-02-03T07:07:24;19.60;33.30
46123;DHT22;31856;-35.404;149.120;2023-02-03T07:09:54;19.50;33.60
46123;DHT22;31856;-35.404;149.120;2023-02-03T07:12:23;19.50;33.70
46123;DHT22;31856;-35.404;149.120;2023-02-03T07:14:52;19.50;34.30
46123;DHT22;31856;-35.404;149.120;2023-02-03T07:17:22;19.70;34.40
46123;DHT22;31856;-35.404;149.120;2023-02-03T07:19:51;19.70;33.30
46123;DHT22;31856;-35.404;149.120;2023-02-03T07:22:21;19.80;33.10
46123;DHT22;31856;-35.404;149.120;2023-02-03T07:24:50;19.70;33.50
46123;DHT22;31856;-35.404;149.120;2023-02-03T07:27:19;19.60;33.70
46123;DHT22;31856;-35.404;149.120;2023-02-03T07:29:49;19.60;33.80
46123;DHT22;31856;-35.404;149.120;2023-02-03T07:32:18;19.30;34.10
46123;DHT22;31856;-35.404;149.120;2023-02-03T07:34:47;19.30;34.90
46123;DHT22;31856;-35.404;149.120;2023-02-03T07:37:17;19.20;34.80
46123;DHT22;31856;-35.404;149.120;2023-02-03T07:39:46;19.00;35.10
46123;DHT22;31856;-35.404;149.120;2023-02-03T07:42:16;19.00;34.50
46123;DHT22;31856;-35.404;149.120;2023-02-03T07:44:45;18.90;35.40
46123;DHT22;31856;-35.404;149.120;2023-02-03T07:47:15;18.90;34.90
46123;DHT22;31856;-35.404;149.120;2023-02-03T07:49:44;18.50;35.50
46123;DHT22;31856;-35.404;149.120;2023-02-03T07:52:13;18.30;35.70
46123;DHT22;31856;-35.404;149.120;2023-02-03T07:54:43;18.40;35.60
46123;DHT22;31856;-35.404;149.120;2023-02-03T07:57:12;18.20;35.70
46123;DHT22;31856;-35.404;149.120;2023-02-03T07:59:41;18.10;36.20
46123;DHT22;31856;-35.404;149.120;2023-02-03T08:02:11;18.00;36.20
46123;DHT22;31856;-35.404;149.120;2023-02-03T08:04:40;17.80;37.10
46123;DHT22;31856;-35.404;149.120;2023-02-03T08:07:10;17.70;37.40
46123;DHT22;31856;-35.404;149.120;2023-02-03T08:09:39;17.50;37.40
46123;DHT22;31856;-35.404;149.120;2023-02-03T08:12:09;17.40;38.10
46123;DHT22;31856;-35.404;149.120;2023-02-03T08:14:38;17.40;38.40
46123;DHT22;31856;-35.404;149.120;2023-02-03T08:17:08;17.30;38.30
46123;DHT22;31856;-35.404;149.120;2023-02-03T08:19:37;17.30;38.70
46123;DHT22;31856;-35.404;149.120;2023-02-03T08:22:06;17.30;38.30
46123;DHT22;31856;-35.404;149.120;2023-02-03T08:24:36;17.30;38.80
46123;DHT22;31856;-35.404;149.120;2023-02-03T08:27:05;17.30;39.10
46123;DHT22;31856;-35.404;149.120;2023-02-03T08:29:34;17.20;39.00
46123;DHT22;31856;-35.404;149.120;2023-02-03T08:32:04;17.20;38.70
46123;DHT22;31856;-35.404;149.120;2023-02-03T08:34:33;17.30;39.40
46123;DHT22;31856;-35.404;149.120;2023-02-03T08:37:03;17.20;38.90
46123;DHT22;31856;-35.404;149.120;2023-02-03T08:39:33;17.30;39.10
46123;DHT22;31856;-35.404;149.120;2023-02-03T08:42:03;17.20;39.10
46123;DHT22;31856;-35.404;149.120;2023-02-03T08:44:33;17.00;39.30
46123;DHT22;31856;-35.404;149.120;2023-02-03T08:47:03;16.90;39.80
46123;DHT22;31856;-35.404;149.120;2023-02-03T08:49:32;16.90;39.80
46123;DHT22;31856;-35.404;149.120;2023-02-03T08:52:04;16.80;39.70
46123;DHT22;31856;-35.404;149.120;2023-02-03T08:54:33;16.80;40.10
46123;DHT22;31856;-35.404;149.120;2023-02-03T08:57:03;16.70;39.40
46123;DHT22;31856;-35.404;149.120;2023-02-03T08:59:32;16.70;40.20
46123;DHT22;31856;-35.404;149.120;2023-02-03T09:02:05;16.70;40.20
46123;DHT22;31856;-35.404;149.120;2023-02-03T09:04:37;16.60;40.40
46123;DHT22;31856;-35.404;149.120;2023-02-03T09:07:08;16.50;40.50
46123;DHT22;31856;-35.404;149.120;2023-02-03T09:09:38;16.50;41.20
46123;DHT22;31856;-35.404;149.120;2023-02-03T09:12:08;16.50;41.10
46123;DHT22;31856;-35.404;149.120;2023-02-03T09:14:40;16.50;40.60
46123;DHT22;31856;-35.404;149.120;2023-02-03T09:17:10;16.50;40.80
46123;DHT22;31856;-35.404;149.120;2023-02-03T17:06:12;11.60;62.90
46123;DHT22;31856;-35.404;149.120;2023-02-03T17:08:42;11.60;62.80
46123;DHT22;31856;-35.404;149.120;2023-02-03T17:11:14;11.60;63.00
46123;DHT22;31856;-35.404;149.120;2023-02-03T17:13:44;11.60;63.10
46123;DHT22;31856;-35.404;149.120;2023-02-03T17:16:15;11.50;63.20
46123;DHT22;31856;-35.404;149.120;2023-02-03T17:18:45;11.50;63.10
46123;DHT22;31856;-35.404;149.120;2023-02-03T17:21:16;11.40;63.30
46123;DHT22;31856;-35.404;149.120;2023-02-03T17:23:46;11.40;63.20
46123;DHT22;31856;-35.404;149.120;2023-02-03T17:26:15;11.50;63.30
46123;DHT22;31856;-35.404;149.120;2023-02-03T17:28:45;11.50;63.00
46123;DHT22;31856;-35.404;149.120;2023-02-03T17:31:16;11.50;63.00
46123;DHT22;31856;-35.404;149.120;2023-02-03T17:33:49;11.50;63.00
46123;DHT22;31856;-35.404;149.120;2023-02-03T17:36:19;11.40;63.30
46123;DHT22;31856;-35.404;149.120;2023-02-03T17:38:52;11.40;63.50
46123;DHT22;31856;-35.404;149.120;2023-02-03T17:41:41;11.40;63.50
46123;DHT22;31856;-35.404;149.120;2023-02-03T17:44:26;11.30;63.70
46123;DHT22;31856;-35.404;149.120;2023-02-03T17:47:12;11.30;63.40
46123;DHT22;31856;-35.404;149.120;2023-02-03T17:49:57;11.30;63.80
46123;DHT22;31856;-35.404;149.120;2023-02-03T17:52:43;11.30;64.00
46123;DHT22;31856;-35.404;149.120;2023-02-03T17:55:29;11.30;64.10
46123;DHT22;31856;-35.404;149.120;2023-02-03T17:58:00;11.20;63.80
46123;DHT22;31856;-35.404;149.120;2023-02-03T18:00:29;11.20;64.40
46123;DHT22;31856;-35.404;149.120;2023-02-03T18:02:59;11.30;63.90
46123;DHT22;31856;-35.404;149.120;2023-02-03T18:05:28;11.30;64.80
46123;DHT22;31856;-35.404;149.120;2023-02-03T18:07:57;11.30;64.30
46123;DHT22;31856;-35.404;149.120;2023-02-03T18:10:38;11.30;64.40
46123;DHT22;31856;-35.404;149.120;2023-02-03T18:13:08;11.30;64.30
46123;DHT22;31856;-35.404;149.120;2023-02-03T18:15:38;11.30;63.70
46123;DHT22;31856;-35.404;149.120;2023-02-03T18:18:08;11.30;64.10
46123;DHT22;31856;-35.404;149.120;2023-02-03T18:20:37;11.30;63.80
46123;DHT22;31856;-35.404;149.120;2023-02-03T18:23:06;11.30;64.00
46123;DHT22;31856;-35.404;149.120;2023-02-03T18:25:36;11.30;64.00
46123;DHT22;31856;-35.404;149.120;2023-02-03T18:28:05;11.10;64.60
46123;DHT22;31856;-35.404;149.120;2023-02-03T18:30:35;11.00;64.80
46123;DHT22;31856;-35.404;149.120;2023-02-03T18:33:05;10.90;65.20
46123;DHT22;31856;-35.404;149.120;2023-02-03T18:35:34;10.80;65.40
46123;DHT22;31856;-35.404;149.120;2023-02-03T18:38:04;10.90;65.40
46123;DHT22;31856;-35.404;149.120;2023-02-03T18:40:35;10.60;65.90
46123;DHT22;31856;-35.404;149.120;2023-02-03T18:43:05;10.60;65.90
46123;DHT22;31856;-35.404;149.120;2023-02-03T18:45:36;10.40;66.30
46123;DHT22;31856;-35.404;149.120;2023-02-03T18:48:05;10.50;66.30
46123;DHT22;31856;-35.404;149.120;2023-02-03T18:50:35;10.60;65.90
46123;DHT22;31856;-35.404;149.120;2023-02-03T18:53:04;10.50;65.30
46123;DHT22;31856;-35.404;149.120;2023-02-03T18:55:34;10.60;65.40
46123;DHT22;31856;-35.404;149.120;2023-02-03T18:58:03;10.60;65.40
46123;DHT22;31856;-35.404;149.120;2023-02-03T19:00:33;10.70;65.10
46123;DHT22;31856;-35.404;149.120;2023-02-03T19:03:02;10.70;64.80
46123;DHT22;31856;-35.404;149.120;2023-02-03T19:05:32;10.80;64.90
46123;DHT22;31856;-35.404;149.120;2023-02-03T19:08:01;10.80;64.60
46123;DHT22;31856;-35.404;149.120;2023-02-03T19:10:30;10.90;64.30
46123;DHT22;31856;-35.404;149.120;2023-02-03T19:13:00;10.90;64.20
46123;DHT22;31856;-35.404;149.120;2023-02-03T19:15:29;10.80;64.10
46123;DHT22;31856;-35.404;149.120;2023-02-03T19:17:59;10.80;64.30
46123;DHT22;31856;-35.404;149.120;2023-02-03T19:20:29;10.80;64.80
46123;DHT22;31856;-35.404;149.120;2023-02-03T19:22:58;10.80;64.50
46123;DHT22;31856;-35.404;149.120;2023-02-03T19:25:30;10.80;64.40
46123;DHT22;31856;-35.404;149.120;2023-02-03T19:28:00;10.80;64.10
46123;DHT22;31856;-35.404;149.120;2023-02-03T19:30:31;10.70;64.20
46123;DHT22;31856;-35.404;149.120;2023-02-03T19:33:00;10.80;64.50
46123;DHT22;31856;-35.404;149.120;2023-02-03T19:35:31;10.80;64.60
46123;DHT22;31856;-35.404;149.120;2023-02-03T19:38:01;10.80;64.60
46123;DHT22;31856;-35.404;149.120;2023-02-03T19:40:31;10.80;64.50
46123;DHT22;31856;-35.404;149.120;2023-02-03T19:43:01;10.80;64.40
46123;DHT22;31856;-35.404;149.120;2023-02-03T19:45:32;10.80;64.00
46123;DHT22;31856;-35.404;149.120;2023-02-03T19:48:03;10.80;64.10
46123;DHT22;31856;-35.404;149.120;2023-02-03T19:50:33;10.80;63.90
46123;DHT22;31856;-35.404;149.120;2023-02-03T19:53:05;10.80;63.70
46123;DHT22;31856;-35.404;149.120;2023-02-03T19:55:37;10.80;63.70
46123;DHT22;31856;-35.404;149.120;2023-02-03T19:58:06;10.80;64.00
46123;DHT22;31856;-35.404;149.120;2023-02-03T20:00:36;10.80;63.80
46123;DHT22;31856;-35.404;149.120;2023-02-03T20:03:05;10.80;63.50
46123;DHT22;31856;-35.404;149.120;2023-02-03T20:05:35;10.80;63.60
46123;DHT22;31856;-35.404;149.120;2023-02-03T20:08:05;10.80;63.60
46123;DHT22;31856;-35.404;149.120;2023-02-03T20:10:34;10.80;63.30
46123;DHT22;31856;-35.404;149.120;2023-02-03T20:13:03;10.80;63.30
46123;DHT22;31856;-35.404;149.120;2023-02-03T20:15:33;10.80;63.20
46123;DHT22;31856;-35.404;149.120;2023-02-03T20:18:04;10.80;63.30
46123;DHT22;31856;-35.404;149.120;2023-02-03T20:20:38;10.80;63.20
46123;DHT22;31856;-35.404;149.120;2023-02-03T20:23:08;10.80;63.30
46123;DHT22;31856;-35.404;149.120;2023-02-03T20:25:37;10.80;63.40
46123;DHT22;31856;-35.404;149.120;2023-02-03T20:28:07;10.80;63.80
46123;DHT22;31856;-35.404;149.120;2023-02-03T20:30:37;10.90;63.60
46123;DHT22;31856;-35.404;149.120;2023-02-03T20:33:08;10.90;62.40
46123;DHT22;31856;-35.404;149.120;2023-02-03T20:35:38;11.00;62.30
46123;DHT22;31856;-35.404;149.120;2023-02-03T20:38:07;11.10;62.50
46123;DHT22;31856;-35.404;149.120;2023-02-03T20:40:37;11.10;61.50
46123;DHT22;31856;-35.404;149.120;2023-02-03T20:43:25;11.10;61.90
46123;DHT22;31856;-35.404;149.120;2023-02-03T20:45:55;11.10;61.60
46123;DHT22;31856;-35.404;149.120;2023-02-03T20:48:26;11.10;61.40
46123;DHT22;31856;-35.404;149.120;2023-02-03T20:50:55;11.20;61.30
46123;DHT22;31856;-35.404;149.120;2023-02-03T20:53:25;11.30;61.60
46123;DHT22;31856;-35.404;149.120;2023-02-03T20:55:56;11.30;62.10
46123;DHT22;31856;-35.404;149.120;2023-02-03T20:58:27;11.40;61.50
46123;DHT22;31856;-35.404;149.120;2023-02-03T21:00:58;11.50;61.70
46123;DHT22;31856;-35.404;149.120;2023-02-03T21:03:28;11.50;61.00
46123;DHT22;31856;-35.404;149.120;2023-02-03T21:06:16;11.50;60.90
46123;DHT22;31856;-35.404;149.120;2023-02-03T21:08:46;11.60;60.70
46123;DHT22;31856;-35.404;149.120;2023-02-03T21:11:17;11.60;60.00
46123;DHT22;31856;-35.404;149.120;2023-02-03T21:13:48;11.70;60.20
46123;DHT22;31856;-35.404;149.120;2023-02-03T21:16:19;11.70;59.30
46123;DHT22;31856;-35.404;149.120;2023-02-03T21:18:58;11.80;59.30
46123;DHT22;31856;-35.404;149.120;2023-02-03T21:21:34;11.80;58.60
46123;DHT22;31856;-35.404;149.120;2023-02-03T21:24:25;12.00;58.60
46123;DHT22;31856;-35.404;149.120;2023-02-03T21:26:55;12.20;57.20
46123;DHT22;31856;-35.404;149.120;2023-02-03T21:29:25;12.40;56.80
46123;DHT22;31856;-35.404;149.120;2023-02-03T21:31:55;12.50;55.70
46123;DHT22;31856;-35.404;149.120;2023-02-03T21:34:25;12.50;55.30
46123;DHT22;31856;-35.404;149.120;2023-02-03T21:37:39;12.70;55.40
46123;DHT22;31856;-35.404;149.120;2023-02-03T21:39:48;12.90;55.50
46123;DHT22;31856;-35.404;149.120;2023-02-03T21:42:28;13.00;53.50
46123;DHT22;31856;-35.404;149.120;2023-02-03T21:45:55;12.90;53.50
46123;DHT22;31856;-35.404;149.120;2023-02-03T21:48:02;13.00;54.00
46123;DHT22;31856;-35.404;149.120;2023-02-03T21:50:47;13.00;54.30
46123;DHT22;31856;-35.404;149.120;2023-02-03T21:53:27;12.90;53.10
46123;DHT22;31856;-35.404;149.120;2023-02-03T21:58:45;13.10;53.60
46123;DHT22;31856;-35.404;149.120;2023-02-03T22:01:18;13.20;53.00
46123;DHT22;31856;-35.404;149.120;2023-02-03T22:03:51;13.30;53.30
46123;DHT22;31856;-35.404;149.120;2023-02-03T22:06:28;13.50;53.60
46123;DHT22;31856;-35.404;149.120;2023-02-03T22:09:02;13.80;53.60
46123;DHT22;31856;-35.404;149.120;2023-02-03T22:11:31;13.90;51.50
46123;DHT22;31856;-35.404;149.120;2023-02-03T22:14:03;14.00;51.70
46123;DHT22;31856;-35.404;149.120;2023-02-03T22:16:33;14.10;51.30
46123;DHT22;31856;-35.404;149.120;2023-02-03T22:19:02;14.20;51.20
46123;DHT22;31856;-35.404;149.120;2023-02-03T22:21:32;14.10;49.20
46123;DHT22;31856;-35.404;149.120;2023-02-03T22:24:02;14.20;49.80
46123;DHT22;31856;-35.404;149.120;2023-02-03T22:26:31;14.30;48.70
46123;DHT22;31856;-35.404;149.120;2023-02-03T22:29:01;14.20;48.90
46123;DHT22;31856;-35.404;149.120;2023-02-03T22:31:30;14.30;49.40
46123;DHT22;31856;-35.404;149.120;2023-02-03T22:34:00;14.50;48.80
46123;DHT22;31856;-35.404;149.120;2023-02-03T22:36:29;14.60;48.10
46123;DHT22;31856;-35.404;149.120;2023-02-03T22:38:59;14.60;47.80
46123;DHT22;31856;-35.404;149.120;2023-02-03T22:41:28;14.70;47.40
46123;DHT22;31856;-35.404;149.120;2023-02-03T22:43:58;14.70;47.20
46123;DHT22;31856;-35.404;149.120;2023-02-03T22:46:27;14.90;48.00
46123;DHT22;31856;-35.404;149.120;2023-02-03T22:48:56;14.80;46.70
46123;DHT22;31856;-35.404;149.120;2023-02-03T22:51:26;14.80;46.70
46123;DHT22;31856;-35.404;149.120;2023-02-03T22:53:55;14.80;46.70
46123;DHT22;31856;-35.404;149.120;2023-02-03T22:56:24;15.00;46.90
46123;DHT22;31856;-35.404;149.120;2023-02-03T22:58:54;15.10;46.90
46123;DHT22;31856;-35.404;149.120;2023-02-03T23:01:23;15.10;46.90
46123;DHT22;31856;-35.404;149.120;2023-02-03T23:03:53;15.30;46.70
46123;DHT22;31856;-35.404;149.120;2023-02-03T23:06:22;15.40;47.00
46123;DHT22;31856;-35.404;149.120;2023-02-03T23:08:52;15.50;46.30
46123;DHT22;31856;-35.404;149.120;2023-02-03T23:11:22;15.60;45.30
46123;DHT22;31856;-35.404;149.120;2023-02-03T23:13:52;15.40;45.70
46123;DHT22;31856;-35.404;149.120;2023-02-03T23:16:22;15.60;46.10
46123;DHT22;31856;-35.404;149.120;2023-02-03T23:18:52;15.60;45.70
46123;DHT22;31856;-35.404;149.120;2023-02-03T23:21:22;15.80;46.00
46123;DHT22;31856;-35.404;149.120;2023-02-03T23:23:55;16.00;45.70
46123;DHT22;31856;-35.404;149.120;2023-02-03T23:26:27;16.20;46.70
46123;DHT22;31856;-35.404;149.120;2023-02-03T23:28:56;16.40;44.80
46123;DHT22;31856;-35.404;149.120;2023-02-03T23:31:27;16.20;44.00
46123;DHT22;31856;-35.404;149.120;2023-02-03T23:33:56;16.30;44.90
46123;DHT22;31856;-35.404;149.120;2023-02-03T23:36:44;16.50;44.60
46123;DHT22;31856;-35.404;149.120;2023-02-03T23:39:13;16.50;44.70
46123;DHT22;31856;-35.404;149.120;2023-02-03T23:41:42;16.50;43.50
46123;DHT22;31856;-35.404;149.120;2023-02-03T23:44:12;16.40;44.70
46123;DHT22;31856;-35.404;149.120;2023-02-03T23:46:41;16.70;44.10
46123;DHT22;31856;-35.404;149.120;2023-02-03T23:49:11;16.90;43.50
46123;DHT22;31856;-35.404;149.120;2023-02-03T23:51:40;16.80;42.90
46123;DHT22;31856;-35.404;149.120;2023-02-03T23:54:10;16.80;42.90
46123;DHT22;31856;-35.404;149.120;2023-02-03T23:56:40;17.10;43.20
46123;DHT22;31856;-35.404;149.120;2023-02-03T23:59:10;17.10;43.10
